sensor_id;sensor_type;location;lat;lon;timestamp;pressure;altitude;pressure_sealevel;temperature;humidity
56811;BME280;42691;47.234;27.494;2022-12-18T00:01:58;100417.00;;;8.64;100.00
56811;BME280;42691;47.234;27.494;2022-12-18T00:04:27;100416.03;;;8.68;100.00
56811;BME280;42691;47.234;27.494;2022-12-18T00:06:53;100423.72;;;8.71;100.00
56811;BME280;42691;47.234;27.494;2022-12-18T00:09:19;100420.22;;;8.72;100.00
56811;BME280;42691;47.234;27.494;2022-12-18T00:11:45;100432.31;;;8.73;100.00
56811;BME280;42691;47.234;27.494;2022-12-18T00:14:12;100424.66;;;8.69;100.00
56811;BME280;42691;47.234;27.494;2022-12-18T00:16:38;100434.00;;;8.74;100.00
56811;BME280;42691;47.234;27.494;2022-12-18T00:19:04;100433.28;;;8.69;100.00
56811;BME280;42691;47.234;27.494;2022-12-18T00:21:31;100429.13;;;8.64;100.00
56811;BME280;42691;47.234;27.494;2022-12-18T00:23:58;100438.75;;;8.60;100.00
56811;BME280;42691;47.234;27.494;2022-12-18T00:26:26;100450.00;;;8.59;100.00
56811;BME280;42691;47.234;27.494;2022-12-18T00:28:53;100447.81;;;8.44;100.00
56811;BME280;42691;47.234;27.494;2022-12-18T00:31:21;100462.25;;;8.53;100.00
56811;BME280;42691;47.234;27.494;2022-12-18T00:33:47;100455.50;;;8.47;100.00
56811;BME280;42691;47.234;27.494;2022-12-18T00:36:15;100467.41;;;8.54;100.00
56811;BME280;42691;47.234;27.494;2022-12-18T00:38:42;100421.69;;;8.19;100.00
56811;BME280;42691;47.234;27.494;2022-12-18T00:41:09;100477.06;;;8.49;100.00
56811;BME280;42691;47.234;27.494;2022-12-18T00:43:35;100489.22;;;8.47;100.00
56811;BME280;42691;47.234;27.494;2022-12-18T00:46:01;100485.84;;;8.43;100.00
56811;BME280;42691;47.234;27.494;2022-12-18T00:48:26;100490.97;;;8.46;100.00
56811;BME280;42691;47.234;27.494;2022-12-18T00:50:52;100490.84;;;8.51;100.00
56811;BME280;42691;47.234;27.494;2022-12-18T00:53:17;100485.59;;;8.53;100.00
56811;BME280;42691;47.234;27.494;2022-12-18T00:55:44;100498.56;;;8.53;100.00
56811;BME280;42691;47.234;27.494;2022-12-18T00:58:11;100499.53;;;8.49;100.00
56811;BME280;42691;47.234;27.494;2022-12-18T01:00:36;100504.56;;;8.55;100.00
56811;BME280;42691;47.234;27.494;2022-12-18T01:03:03;100506.22;;;8.59;100.00
56811;BME280;42691;47.234;27.494;2022-12-18T01:05:29;100504.56;;;8.55;100.00
56811;BME280;42691;47.234;27.494;2022-12-18T01:07:55;100505.41;;;8.57;100.00
56811;BME280;42691;47.234;27.494;2022-12-18T01:10:21;100500.19;;;8.58;100.00
56811;BME280;42691;47.234;27.494;2022-12-18T01:12:46;100505.41;;;8.57;100.00
56811;BME280;42691;47.234;27.494;2022-12-18T01:15:13;100496.78;;;8.55;100.00
56811;BME280;42691;47.234;27.494;2022-12-18T01:17:38;100505.44;;;8.55;100.00
56811;BME280;42691;47.234;27.494;2022-12-18T01:20:05;100503.78;;;8.51;100.00
56811;BME280;42691;47.234;27.494;2022-12-18T01:22:30;100507.28;;;8.50;100.00
56811;BME280;42691;47.234;27.494;2022-12-18T01:24:56;100518.63;;;8.46;100.00
56811;BME280;42691;47.234;27.494;2022-12-18T01:27:21;100507.56;;;8.39;100.00
56811;BME280;42691;47.234;27.494;2022-12-18T01:29:47;100512.69;;;8.42;100.00
56811;BME280;42691;47.234;27.494;2022-12-18T01:32:12;100520.41;;;8.44;100.00
56811;BME280;42691;47.234;27.494;2022-12-18T01:34:38;100519.69;;;8.39;100.00
56811;BME280;42691;47.234;27.494;2022-12-18T01:37:04;100519.75;;;8.36;100.00
56811;BME280;42691;47.234;27.494;2022-12-18T01:39:30;100517.22;;;8.33;100.00
56811;BME280;42691;47.234;27.494;2022-12-18T01:41:57;100518.91;;;8.35;100.00
56811;BME280;42691;47.234;27.494;2022-12-18T01:47:40;100527.72;;;8.28;100.00
56811;BME280;42691;47.234;27.494;2022-12-18T01:52:58;100530.25;;;8.30;100.00
56811;BME280;42691;47.234;27.494;2022-12-18T01:55:28;100531.06;;;8.32;100.00
56811;BME280;42691;47.234;27.494;2022-12-18T01:57:57;100534.69;;;8.26;100.00
56811;BME280;42691;47.234;27.494;2022-12-18T02:00:23;100540.72;;;8.27;100.00
56811;BME280;42691;47.234;27.494;2022-12-18T02:02:49;100542.41;;;8.28;100.00
56811;BME280;42691;47.234;27.494;2022-12-18T02:05:19;100540.69;;;8.28;100.00
56811;BME280;42691;47.234;27.494;2022-12-18T02:07:59;100545.03;;;8.26;100.00
56811;BME280;42691;47.234;27.494;2022-12-18T02:10:27;100546.75;;;8.27;100.00
56811;BME280;42691;47.234;27.494;2022-12-18T02:13:14;100547.75;;;8.22;100.00
56811;BME280;42691;47.234;27.494;2022-12-18T02:15:56;100548.56;;;8.24;100.00
56811;BME280;42691;47.234;27.494;2022-12-18T02:18:30;100549.47;;;8.23;100.00
56811;BME280;42691;47.234;27.494;2022-12-18T02:23:50;100552.13;;;8.20;100.00
56811;BME280;42691;47.234;27.494;2022-12-18T02:26:40;100559.09;;;8.16;100.00
56811;BME280;42691;47.234;27.494;2022-12-18T02:29:15;100565.22;;;8.13;100.00
56811;BME280;42691;47.234;27.494;2022-12-18T02:31:46;100566.91;;;8.14;100.00
56811;BME280;42691;47.234;27.494;2022-12-18T02:34:15;100575.66;;;8.10;100.00
56811;BME280;42691;47.234;27.494;2022-12-18T02:36:43;100581.84;;;8.05;100.00
56811;BME280;42691;47.234;27.494;2022-12-18T02:39:12;100582.75;;;8.02;100.00
56811;BME280;42691;47.234;27.494;2022-12-18T02:41:38;100580.38;;;7.93;100.00
56811;BME280;42691;47.234;27.494;2022-12-18T02:44:13;100592.31;;;8.00;100.00
56811;BME280;42691;47.234;27.494;2022-12-18T02:47:05;100582.06;;;7.96;100.00
56811;BME280;42691;47.234;27.494;2022-12-18T03:00:37;100598.44;;;7.96;100.00
56811;BME280;42691;47.234;27.494;2022-12-18T03:06:05;100604.16;;;7.72;100.00
56811;BME280;42691;47.234;27.494;2022-12-18T03:08:45;100614.34;;;7.79;100.00
56811;BME280;42691;47.234;27.494;2022-12-18T03:11:14;100605.88;;;7.73;100.00
56811;BME280;42691;47.234;27.494;2022-12-18T03:13:43;100622.28;;;7.72;100.00
56811;BME280;42691;47.234;27.494;2022-12-18T03:16:14;100623.25;;;7.68;100.00
56811;BME280;42691;47.234;27.494;2022-12-18T03:18:57;100617.22;;;7.67;100.00
56811;BME280;42691;47.234;27.494;2022-12-18T03:21:34;100630.19;;;7.66;100.00
56811;BME280;42691;47.234;27.494;2022-12-18T03:24:06;100633.06;;;7.53;100.00
56811;BME280;42691;47.234;27.494;2022-12-18T03:26:33;100603.34;;;7.28;100.00
56811;BME280;42691;47.234;27.494;2022-12-18T03:29:04;100646.13;;;7.47;100.00
56811;BME280;42691;47.234;27.494;2022-12-18T03:31:32;100647.81;;;7.48;100.00
56811;BME280;42691;47.234;27.494;2022-12-18T03:34:00;100642.66;;;7.48;100.00
56811;BME280;42691;47.234;27.494;2022-12-18T03:36:27;100650.34;;;7.51;100.00
56811;BME280;42691;47.234;27.494;2022-12-18T03:38:53;100644.41;;;7.46;100.00
56811;BME280;42691;47.234;27.494;2022-12-18T03:41:43;100649.53;;;7.49;100.00
56811;BME280;42691;47.234;27.494;2022-12-18T03:52:10;100666.03;;;7.42;100.00
56811;BME280;42691;47.234;27.494;2022-12-18T03:54:36;100673.81;;;7.42;100.00
56811;BME280;42691;47.234;27.494;2022-12-18T03:57:11;100677.34;;;7.38;100.00
56811;BME280;42691;47.234;27.494;2022-12-18T03:59:39;100688.56;;;7.39;100.00
56811;BME280;42691;47.234;27.494;2022-12-18T04:02:07;100690.22;;;7.41;100.00
56811;BME280;42691;47.234;27.494;2022-12-18T04:04:35;100692.81;;;7.41;100.00
56811;BME280;42691;47.234;27.494;2022-12-18T04:07:03;100699.81;;;7.36;100.00
56811;BME280;42691;47.234;27.494;2022-12-18T04:09:30;100699.88;;;7.33;100.00
56811;BME280;42691;47.234;27.494;2022-12-18T04:11:57;100707.56;;;7.38;100.00
56811;BME280;42691;47.234;27.494;2022-12-18T04:14:22;100725.72;;;7.36;100.00
56811;BME280;42691;47.234;27.494;2022-12-18T04:16:48;100730.91;;;7.35;100.00
56811;BME280;42691;47.234;27.494;2022-12-18T04:19:13;100743.00;;;7.34;100.00
56811;BME280;42691;47.234;27.494;2022-12-18T04:21:39;100739.53;;;7.35;100.00
56811;BME280;42691;47.234;27.494;2022-12-18T04:24:04;100740.28;;;7.40;100.00
56811;BME280;42691;47.234;27.494;2022-12-18T04:26:30;100740.34;;;7.37;100.00
56811;BME280;42691;47.234;27.494;2022-12-18T04:28:55;100752.38;;;7.40;100.00
56811;BME280;42691;47.234;27.494;2022-12-18T04:31:21;100752.41;;;7.38;100.00
56811;BME280;42691;47.234;27.494;2022-12-18T04:33:46;100755.00;;;7.38;100.00
56811;BME280;42691;47.234;27.494;2022-12-18T04:36:12;100755.00;;;7.38;100.00
56811;BME280;42691;47.234;27.494;2022-12-18T04:38:37;100753.28;;;7.37;100.00
56811;BME280;42691;47.234;27.494;2022-12-18T04:41:03;100762.84;;;7.34;100.00
56811;BME280;42691;47.234;27.494;2022-12-18T04:43:28;100772.31;;;7.36;100.00
56811;BME280;42691;47.234;27.494;2022-12-18T04:46:02;100760.34;;;7.29;100.00
56811;BME280;42691;47.234;27.494;2022-12-18T04:48:27;100786.06;;;7.38;100.00
56811;BME280;42691;47.234;27.494;2022-12-18T04:50:53;100781.72;;;7.40;100.00
56811;BME280;42691;47.234;27.494;2022-12-18T04:53:18;100788.56;;;7.43;100.00
56811;BME280;42691;47.234;27.494;2022-12-18T04:55:43;100786.00;;;7.44;100.00
56811;BME280;42691;47.234;27.494;2022-12-18T04:58:09;100798.97;;;7.41;100.00
56811;BME280;42691;47.234;27.494;2022-12-18T05:00:35;100802.47;;;7.39;100.00
56811;BME280;42691;47.234;27.494;2022-12-18T05:03:01;100816.19;;;7.42;100.00
56811;BME280;42691;47.234;27.494;2022-12-18T05:05:27;100829.13;;;7.42;100.00
56811;BME280;42691;47.234;27.494;2022-12-18T05:07:52;100830.09;;;7.37;100.00
56811;BME280;42691;47.234;27.494;2022-12-18T05:10:17;100831.84;;;7.36;100.00
56811;BME280;42691;47.234;27.494;2022-12-18T05:12:43;100843.19;;;7.29;100.00
56811;BME280;42691;47.234;27.494;2022-12-18T05:15:27;100847.53;;;7.27;100.00
56811;BME280;42691;47.234;27.494;2022-12-18T05:17:52;100843.19;;;7.29;100.00
56811;BME280;42691;47.234;27.494;2022-12-18T05:20:18;100840.63;;;7.28;100.00
56811;BME280;42691;47.234;27.494;2022-12-18T05:22:43;100849.28;;;7.25;100.00
56811;BME280;42691;47.234;27.494;2022-12-18T05:25:09;100849.31;;;7.24;100.00
56811;BME280;42691;47.234;27.494;2022-12-18T05:27:34;100859.56;;;7.30;100.00
56811;BME280;42691;47.234;27.494;2022-12-18T05:30:00;100861.28;;;7.31;100.00
56811;BME280;42691;47.234;27.494;2022-12-18T05:32:25;100866.50;;;7.28;100.00
56811;BME280;42691;47.234;27.494;2022-12-18T05:34:51;100872.59;;;7.25;100.00
56811;BME280;42691;47.234;27.494;2022-12-18T05:37:16;100877.81;;;7.22;100.00
56811;BME280;42691;47.234;27.494;2022-12-18T05:39:43;100876.06;;;7.24;100.00
56811;BME280;42691;47.234;27.494;2022-12-18T05:42:08;100861.59;;;7.11;100.00
56811;BME280;42691;47.234;27.494;2022-12-18T05:44:34;100887.28;;;7.23;100.00
56811;BME280;42691;47.234;27.494;2022-12-18T05:46:59;100891.63;;;7.21;100.00
56811;BME280;42691;47.234;27.494;2022-12-18T05:49:24;100901.84;;;7.29;100.00
56811;BME280;42691;47.234;27.494;2022-12-18T05:51:50;100912.19;;;7.30;100.00
56811;BME280;42691;47.234;27.494;2022-12-18T05:54:15;100918.25;;;7.28;100.00
56811;BME280;42691;47.234;27.494;2022-12-18T05:56:41;100907.88;;;7.31;100.00
56811;BME280;42691;47.234;27.494;2022-12-18T05:59:06;100916.34;;;7.39;100.00
56811;BME280;42691;47.234;27.494;2022-12-18T06:01:32;100918.97;;;7.37;100.00
56811;BME280;42691;47.234;27.494;2022-12-18T06:03:57;100920.72;;;7.35;100.00
56811;BME280;42691;47.234;27.494;2022-12-18T06:06:25;100936.41;;;7.26;100.00
56811;BME280;42691;47.234;27.494;2022-12-18T06:08:52;100931.28;;;7.23;100.00
56811;BME280;42691;47.234;27.494;2022-12-18T06:11:20;100933.03;;;7.21;100.00
56811;BME280;42691;47.234;27.494;2022-12-18T06:13:49;100939.13;;;7.18;100.00
56811;BME280;42691;47.234;27.494;2022-12-18T06:16:15;100960.66;;;7.19;100.00
56811;BME280;42691;47.234;27.494;2022-12-18T06:18:40;100956.34;;;7.19;100.00
56811;BME280;42691;47.234;27.494;2022-12-18T06:21:06;100958.06;;;7.20;100.00
56811;BME280;42691;47.234;27.494;2022-12-18T06:23:31;100958.13;;;7.16;100.00
56811;BME280;42691;47.234;27.494;2022-12-18T06:25:57;100958.16;;;7.13;100.00
56811;BME280;42691;47.234;27.494;2022-12-18T06:28:22;100963.31;;;7.16;100.00
56811;BME280;42691;47.234;27.494;2022-12-18T06:30:48;100954.78;;;7.08;100.00
56811;BME280;42691;47.234;27.494;2022-12-18T06:33:15;100971.13;;;7.13;100.00
56811;BME280;42691;47.234;27.494;2022-12-18T06:35:41;100971.94;;;7.15;100.00
56811;BME280;42691;47.234;27.494;2022-12-18T06:38:07;100978.84;;;7.16;100.00
56811;BME280;42691;47.234;27.494;2022-12-18T06:40:32;100981.38;;;7.19;100.00
56811;BME280;42691;47.234;27.494;2022-12-18T06:42:58;100990.81;;;7.21;100.00
56811;BME280;42691;47.234;27.494;2022-12-18T06:45:23;100993.44;;;7.20;100.00
56811;BME280;42691;47.234;27.494;2022-12-18T06:47:50;101008.09;;;7.21;100.00
56811;BME280;42691;47.234;27.494;2022-12-18T06:50:16;101010.69;;;7.21;100.00
56811;BME280;42691;47.234;27.494;2022-12-18T06:52:41;101000.50;;;7.06;100.00
56811;BME280;42691;47.234;27.494;2022-12-18T06:55:10;101010.72;;;7.18;100.00
56811;BME280;42691;47.234;27.494;2022-12-18T06:57:35;101014.19;;;7.17;100.00
56811;BME280;42691;47.234;27.494;2022-12-18T07:00:01;101022.78;;;7.19;100.00
56811;BME280;42691;47.234;27.494;2022-12-18T07:02:26;101038.34;;;7.16;100.00
56811;BME280;42691;47.234;27.494;2022-12-18T07:04:51;101044.38;;;7.18;100.00
56811;BME280;42691;47.234;27.494;2022-12-18T07:07:17;101049.47;;;7.22;100.00
56811;BME280;42691;47.234;27.494;2022-12-18T07:09:43;101043.44;;;7.22;100.00
56811;BME280;42691;47.234;27.494;2022-12-18T07:12:09;101048.50;;;7.31;100.00
56811;BME280;42691;47.234;27.494;2022-12-18T07:14:34;101043.38;;;7.28;100.00
56811;BME280;42691;47.234;27.494;2022-12-18T07:17:00;101057.16;;;7.29;100.00
56811;BME280;42691;47.234;27.494;2022-12-18T07:19:25;101061.47;;;7.28;100.00
56811;BME280;42691;47.234;27.494;2022-12-18T07:21:51;101061.50;;;7.27;100.00
56811;BME280;42691;47.234;27.494;2022-12-18T07:24:17;101048.53;;;7.28;100.00
56811;BME280;42691;47.234;27.494;2022-12-18T07:26:42;101053.72;;;7.28;100.00
56811;BME280;42691;47.234;27.494;2022-12-18T07:29:10;101065.69;;;7.35;100.00
56811;BME280;42691;47.234;27.494;2022-12-18T07:31:35;101065.66;;;7.38;100.00
56811;BME280;42691;47.234;27.494;2022-12-18T07:34:01;101074.28;;;7.39;100.00
56811;BME280;42691;47.234;27.494;2022-12-18T07:36:26;101068.22;;;7.40;100.00
56811;BME280;42691;47.234;27.494;2022-12-18T07:38:52;101059.72;;;7.32;100.00
56811;BME280;42691;47.234;27.494;2022-12-18T07:41:18;101073.38;;;7.43;100.00
56811;BME280;42691;47.234;27.494;2022-12-18T07:43:44;101076.84;;;7.43;100.00
56811;BME280;42691;47.234;27.494;2022-12-18T07:46:11;101079.41;;;7.42;100.00
56811;BME280;42691;47.234;27.494;2022-12-18T07:48:39;101070.88;;;7.35;100.00
56811;BME280;42691;47.234;27.494;2022-12-18T07:51:05;101096.69;;;7.44;100.00
56811;BME280;42691;47.234;27.494;2022-12-18T07:53:32;101087.13;;;7.48;100.00
56811;BME280;42691;47.234;27.494;2022-12-18T07:56:00;101106.88;;;7.55;100.00
56811;BME280;42691;47.234;27.494;2022-12-18T07:58:26;101101.69;;;7.57;100.00
56811;BME280;42691;47.234;27.494;2022-12-18T08:00:52;101110.28;;;7.59;100.00
56811;BME280;42691;47.234;27.494;2022-12-18T08:03:18;101113.63;;;7.67;100.00
56811;BME280;42691;47.234;27.494;2022-12-18T08:05:43;101120.56;;;7.65;100.00
56811;BME280;42691;47.234;27.494;2022-12-18T08:08:09;101118.03;;;7.62;100.00
56811;BME280;42691;47.234;27.494;2022-12-18T08:10:35;101131.84;;;7.61;100.00
56811;BME280;42691;47.234;27.494;2022-12-18T08:13:00;101125.91;;;7.52;100.00
56811;BME280;42691;47.234;27.494;2022-12-18T08:15:26;101120.66;;;7.59;100.00
56811;BME280;42691;47.234;27.494;2022-12-18T08:17:51;101121.44;;;7.64;100.00
56811;BME280;42691;47.234;27.494;2022-12-18T08:20:17;101137.91;;;7.60;100.00
56811;BME280;42691;47.234;27.494;2022-12-18T08:22:43;101125.75;;;7.65;100.00
56811;BME280;42691;47.234;27.494;2022-12-18T08:25:09;101123.28;;;7.56;100.00
56811;BME280;42691;47.234;27.494;2022-12-18T08:27:35;101129.34;;;7.55;100.00
56811;BME280;42691;47.234;27.494;2022-12-18T08:30:02;101132.91;;;7.46;100.00
56811;BME280;42691;47.234;27.494;2022-12-18T08:32:28;101137.19;;;7.48;100.00
56811;BME280;42691;47.234;27.494;2022-12-18T08:34:53;101120.84;;;7.43;100.00
56811;BME280;42691;47.234;27.494;2022-12-18T08:37:18;101144.03;;;7.54;100.00
56811;BME280;42691;47.234;27.494;2022-12-18T08:39:44;101137.94;;;7.57;100.00
56811;BME280;42691;47.234;27.494;2022-12-18T08:42:10;101141.66;;;7.34;100.00
56811;BME280;42691;47.234;27.494;2022-12-18T08:44:54;101152.81;;;7.38;100.00
56811;BME280;42691;47.234;27.494;2022-12-18T08:47:19;101138.09;;;7.44;100.00
56811;BME280;42691;47.234;27.494;2022-12-18T08:49:45;101137.25;;;7.44;100.00
56811;BME280;42691;47.234;27.494;2022-12-18T08:52:10;101141.56;;;7.40;100.00
56811;BME280;42691;47.234;27.494;2022-12-18T08:54:36;101144.25;;;7.34;100.00
56811;BME280;42691;47.234;27.494;2022-12-18T08:57:01;101141.63;;;7.37;100.00
56811;BME280;42691;47.234;27.494;2022-12-18T08:59:27;101140.84;;;7.31;100.00
56811;BME280;42691;47.234;27.494;2022-12-18T09:01:53;101134.91;;;7.21;100.00
56811;BME280;42691;47.234;27.494;2022-12-18T09:04:19;101139.94;;;7.33;100.00
56811;BME280;42691;47.234;27.494;2022-12-18T09:06:44;101153.72;;;7.35;100.00
56811;BME280;42691;47.234;27.494;2022-12-18T09:09:10;101145.16;;;7.30;100.00
56811;BME280;42691;47.234;27.494;2022-12-18T09:11:36;101157.16;;;7.36;100.00
56811;BME280;42691;47.234;27.494;2022-12-18T09:14:02;101150.38;;;7.27;100.00
56811;BME280;42691;47.234;27.494;2022-12-18T09:16:28;101156.41;;;7.28;100.00
56811;BME280;42691;47.234;27.494;2022-12-18T09:18:58;101153.84;;;7.26;100.00
56811;BME280;42691;47.234;27.494;2022-12-18T09:21:29;101144.34;;;7.25;100.00
56811;BME280;42691;47.234;27.494;2022-12-18T09:23:56;101146.91;;;7.28;100.00
56811;BME280;42691;47.234;27.494;2022-12-18T09:26:22;101164.13;;;7.31;100.00
56811;BME280;42691;47.234;27.494;2022-12-18T09:28:48;101152.22;;;7.17;100.00
56811;BME280;42691;47.234;27.494;2022-12-18T09:31:14;101161.69;;;7.17;100.00
56811;BME280;42691;47.234;27.494;2022-12-18T09:33:40;101154.03;;;7.08;100.00
56811;BME280;42691;47.234;27.494;2022-12-18T09:36:08;101156.56;;;7.12;100.00
56811;BME280;42691;47.234;27.494;2022-12-18T09:38:34;101147.28;;;6.92;100.00
56811;BME280;42691;47.234;27.494;2022-12-18T09:41:04;101157.53;;;7.02;100.00
56811;BME280;42691;47.234;27.494;2022-12-18T09:43:50;101171.38;;;6.97;100.00
56811;BME280;42691;47.234;27.494;2022-12-18T09:46:27;101183.44;;;6.98;100.00
56811;BME280;42691;47.234;27.494;2022-12-18T09:48:59;101186.13;;;6.88;100.00
56811;BME280;42691;47.234;27.494;2022-12-18T09:51:35;101192.06;;;6.97;100.00
56811;BME280;42691;47.234;27.494;2022-12-18T09:54:24;101188.78;;;6.81;100.00
56811;BME280;42691;47.234;27.494;2022-12-18T09:56:51;101206.09;;;6.74;100.00
56811;BME280;42691;47.234;27.494;2022-12-18T09:59:35;101187.91;;;6.80;100.00
56811;BME280;42691;47.234;27.494;2022-12-18T10:04:39;101187.94;;;6.79;100.00
56811;BME280;42691;47.234;27.494;2022-12-18T10:07:15;101187.88;;;6.86;100.00
56811;BME280;42691;47.234;27.494;2022-12-18T10:10:23;101189.47;;;7.00;100.00
56811;BME280;42691;47.234;27.494;2022-12-18T10:13:18;101184.31;;;6.98;100.00
56811;BME280;42691;47.234;27.494;2022-12-18T10:16:16;101186.94;;;6.94;100.00
56811;BME280;42691;47.234;27.494;2022-12-18T10:21:51;101198.94;;;7.01;100.00
56811;BME280;42691;47.234;27.494;2022-12-18T10:24:42;101176.66;;;6.87;100.00
56811;BME280;42691;47.234;27.494;2022-12-18T10:27:15;101200.81;;;6.83;100.00
56811;BME280;42691;47.234;27.494;2022-12-18T10:29:42;101196.00;;;6.38;100.00
56811;BME280;42691;47.234;27.494;2022-12-18T10:32:18;101217.53;;;6.40;100.00
56811;BME280;42691;47.234;27.494;2022-12-18T10:34:47;101231.16;;;6.62;100.00
56811;BME280;42691;47.234;27.494;2022-12-18T10:37:23;101233.06;;;6.37;100.00
56811;BME280;42691;47.234;27.494;2022-12-18T10:40:18;101220.81;;;6.63;100.00
56811;BME280;42691;47.234;27.494;2022-12-18T10:42:44;101221.63;;;6.68;100.00
56811;BME280;42691;47.234;27.494;2022-12-18T10:45:15;101224.97;;;6.82;100.00
56811;BME280;42691;47.234;27.494;2022-12-18T10:47:46;101218.03;;;6.87;100.00
56811;BME280;42691;47.234;27.494;2022-12-18T10:50:32;101212.84;;;6.90;100.00
56811;BME280;42691;47.234;27.494;2022-12-18T10:53:00;101230.22;;;6.73;100.00
56811;BME280;42691;47.234;27.494;2022-12-18T10:55:34;101231.13;;;6.65;100.00
56811;BME280;42691;47.234;27.494;2022-12-18T11:03:46;101244.19;;;6.48;100.00
56811;BME280;42691;47.234;27.494;2022-12-18T11:06:24;101249.22;;;6.68;100.00
56811;BME280;42691;47.234;27.494;2022-12-18T11:11:28;101248.41;;;6.59;100.00
56811;BME280;42691;47.234;27.494;2022-12-18T11:14:04;101252.69;;;6.65;100.00
56811;BME280;42691;47.234;27.494;2022-12-18T11:16:50;101247.66;;;6.45;100.00
56811;BME280;42691;47.234;27.494;2022-12-18T11:19:38;101246.78;;;6.48;100.00
56811;BME280;42691;47.234;27.494;2022-12-18T11:22:20;101244.97;;;6.59;100.00
56811;BME280;42691;47.234;27.494;2022-12-18T11:24:55;101248.34;;;6.69;100.00
56811;BME280;42691;47.234;27.494;2022-12-18T11:27:21;101247.38;;;6.85;100.00
56811;BME280;42691;47.234;27.494;2022-12-18T11:29:49;101260.41;;;6.74;100.00
56811;BME280;42691;47.234;27.494;2022-12-18T11:32:42;101256.94;;;6.74;100.00
56811;BME280;42691;47.234;27.494;2022-12-18T11:35:23;101263.88;;;6.72;100.00
56811;BME280;42691;47.234;27.494;2022-12-18T11:37:59;101267.28;;;6.77;100.00
56811;BME280;42691;47.234;27.494;2022-12-18T11:40:35;101268.13;;;6.77;100.00
56811;BME280;42691;47.234;27.494;2022-12-18T11:43:18;101284.47;;;6.82;100.00
56811;BME280;42691;47.234;27.494;2022-12-18T11:45:53;101284.50;;;6.78;100.00
56811;BME280;42691;47.234;27.494;2022-12-18T11:48:28;101295.78;;;6.69;100.00
56811;BME280;42691;47.234;27.494;2022-12-18T11:50:57;101297.50;;;6.64;100.00
56811;BME280;42691;47.234;27.494;2022-12-18T11:53:25;101284.56;;;6.66;100.00
56811;BME280;42691;47.234;27.494;2022-12-18T11:56:02;101290.63;;;6.63;100.00
56811;BME280;42691;47.234;27.494;2022-12-18T12:29:41;101325.94;;;6.70;100.00
56811;BME280;42691;47.234;27.494;2022-12-18T12:32:17;101323.47;;;6.46;100.00
56811;BME280;42691;47.234;27.494;2022-12-18T12:35:02;101333.88;;;6.31;100.00
56811;BME280;42691;47.234;27.494;2022-12-18T12:40:07;101366.97;;;7.22;100.00
56811;BME280;42691;47.234;27.494;2022-12-18T12:42:39;101348.97;;;7.04;100.00
56811;BME280;42691;47.234;27.494;2022-12-18T12:45:32;101362.78;;;7.09;100.00
56811;BME280;42691;47.234;27.494;2022-12-18T12:48:01;101361.09;;;7.00;100.00
56811;BME280;42691;47.234;27.494;2022-12-18T12:50:27;101367.16;;;6.96;100.00
56811;BME280;42691;47.234;27.494;2022-12-18T12:52:55;101366.28;;;6.96;100.00
56811;BME280;42691;47.234;27.494;2022-12-18T12:55:26;101364.56;;;6.95;100.00
56811;BME280;42691;47.234;27.494;2022-12-18T13:00:19;101373.34;;;6.75;100.00
56811;BME280;42691;47.234;27.494;2022-12-18T13:05:46;101386.16;;;6.94;100.00
56811;BME280;42691;47.234;27.494;2022-12-18T13:08:31;101377.66;;;6.73;100.00
56811;BME280;42691;47.234;27.494;2022-12-18T13:10:58;101388.81;;;6.81;100.00
56811;BME280;42691;47.234;27.494;2022-12-18T13:13:52;101403.50;;;6.76;100.00
56811;BME280;42691;47.234;27.494;2022-12-18T13:16:20;101398.31;;;6.78;100.00
56811;BME280;42691;47.234;27.494;2022-12-18T13:18:54;101399.19;;;6.75;100.00
56811;BME280;42691;47.234;27.494;2022-12-18T13:21:25;101403.50;;;6.75;100.00
56811;BME280;42691;47.234;27.494;2022-12-18T13:23:52;101406.09;;;6.73;100.00
56811;BME280;42691;47.234;27.494;2022-12-18T13:36:46;101417.31;;;6.68;100.00
56811;BME280;42691;47.234;27.494;2022-12-18T13:41:48;101416.47;;;6.64;100.00
56811;BME280;42691;47.234;27.494;2022-12-18T13:46:52;101423.41;;;6.56;100.00
56811;BME280;42691;47.234;27.494;2022-12-18T13:49:22;101431.13;;;6.61;100.00
56811;BME280;42691;47.234;27.494;2022-12-18T13:51:51;101427.69;;;6.63;100.00
56811;BME280;42691;47.234;27.494;2022-12-18T13:54:39;101438.03;;;6.69;100.00
56811;BME280;42691;47.234;27.494;2022-12-18T13:57:12;101437.16;;;6.64;100.00
56811;BME280;42691;47.234;27.494;2022-12-18T13:59:50;101430.28;;;6.58;100.00
56811;BME280;42691;47.234;27.494;2022-12-18T14:02:20;101435.44;;;6.63;100.00
56811;BME280;42691;47.234;27.494;2022-12-18T14:04:48;101431.09;;;6.68;100.00
56811;BME280;42691;47.234;27.494;2022-12-18T14:07:15;101437.13;;;6.67;100.00
56811;BME280;42691;47.234;27.494;2022-12-18T14:10:00;101435.44;;;6.60;100.00
56811;BME280;42691;47.234;27.494;2022-12-18T14:12:32;101444.91;;;6.64;100.00
56811;BME280;42691;47.234;27.494;2022-12-18T14:15:33;101442.34;;;6.58;100.00
56811;BME280;42691;47.234;27.494;2022-12-18T14:20:41;101460.44;;;6.61;100.00
56811;BME280;42691;47.234;27.494;2022-12-18T14:23:38;101461.34;;;6.54;100.00
56811;BME280;42691;47.234;27.494;2022-12-18T14:26:27;101471.66;;;6.55;100.00
56811;BME280;42691;47.234;27.494;2022-12-18T14:28:59;101477.72;;;6.54;100.00
56811;BME280;42691;47.234;27.494;2022-12-18T14:31:28;101473.41;;;6.52;100.00
56811;BME280;42691;47.234;27.494;2022-12-18T14:33:54;101476.00;;;6.49;100.00
56811;BME280;42691;47.234;27.494;2022-12-18T14:36:25;101480.28;;;6.53;100.00